sensor_id;sensor_type;location;lat;lon;timestamp;P1;P2;P0
72854;PMS7003;60991;51.278;22.550;2024-01-15T00:00:07;15.67;11.67;7.33
72854;PMS7003;60991;51.278;22.550;2024-01-15T00:01:41;21.50;16.00;11.00
72854;PMS7003;60991;51.278;22.550;2024-01-15T00:03:15;15.00;14.25;10.75
72854;PMS7003;60991;51.278;22.550;2024-01-15T00:04:45;26.33;22.00;13.67
72854;PMS7003;60991;51.278;22.550;2024-01-15T00:06:15;16.33;13.33;8.67
72854;PMS7003;60991;51.278;22.550;2024-01-15T00:07:45;20.00;18.33;10.67
72854;PMS7003;60991;51.278;22.550;2024-01-15T00:09:15;14.00;14.00;10.00
72854;PMS7003;60991;51.278;22.550;2024-01-15T00:10:46;12.25;5.50;4.25
72854;PMS7003;60991;51.278;22.550;2024-01-15T00:12:16;28.00;22.67;13.67
72854;PMS7003;60991;51.278;22.550;2024-01-15T00:13:46;23.00;17.67;11.67
72854;PMS7003;60991;51.278;22.550;2024-01-15T00:15:16;29.50;20.25;13.00
72854;PMS7003;60991;51.278;22.550;2024-01-15T00:16:47;25.67;23.67;14.00
72854;PMS7003;60991;51.278;22.550;2024-01-15T00:18:17;26.50;21.50;14.25
72854;PMS7003;60991;51.278;22.550;2024-01-15T00:19:47;25.00;22.00;16.00
72854;PMS7003;60991;51.278;22.550;2024-01-15T00:21:17;31.00;20.33;13.00
72854;PMS7003;60991;51.278;22.550;2024-01-15T00:22:48;24.33;22.67;13.00
72854;PMS7003;60991;51.278;22.550;2024-01-15T00:24:18;18.33;16.33;14.00
72854;PMS7003;60991;51.278;22.550;2024-01-15T00:25:48;17.00;16.00;11.67
72854;PMS7003;60991;51.278;22.550;2024-01-15T00:27:20;26.00;21.50;16.00
72854;PMS7003;60991;51.278;22.550;2024-01-15T00:28:50;23.00;22.00;13.75
72854;PMS7003;60991;51.278;22.550;2024-01-15T00:30:21;36.00;29.00;17.00
72854;PMS7003;60991;51.278;22.550;2024-01-15T00:31:51;18.33;15.33;11.00
72854;PMS7003;60991;51.278;22.550;2024-01-15T00:33:21;29.67;21.00;14.00
72854;PMS7003;60991;51.278;22.550;2024-01-15T00:34:51;24.33;22.00;16.00
72854;PMS7003;60991;51.278;22.550;2024-01-15T00:36:21;30.00;21.33;12.67
72854;PMS7003;60991;51.278;22.550;2024-01-15T00:37:52;27.33;23.00;14.00
72854;PMS7003;60991;51.278;22.550;2024-01-15T00:39:22;24.00;22.67;15.33
72854;PMS7003;60991;51.278;22.550;2024-01-15T00:40:52;30.67;14.67;14.00
72854;PMS7003;60991;51.278;22.550;2024-01-15T00:42:22;18.33;12.00;10.33
72854;PMS7003;60991;51.278;22.550;2024-01-15T00:43:53;31.67;27.33;17.00
72854;PMS7003;60991;51.278;22.550;2024-01-15T00:45:23;33.00;25.75;17.00
72854;PMS7003;60991;51.278;22.550;2024-01-15T00:46:53;20.25;19.25;13.00
72854;PMS7003;60991;51.278;22.550;2024-01-15T00:48:23;36.00;27.67;17.00
72854;PMS7003;60991;51.278;22.550;2024-01-15T00:49:54;29.67;25.00;14.00
72854;PMS7003;60991;51.278;22.550;2024-01-15T00:51:24;30.33;23.00;13.67
72854;PMS7003;60991;51.278;22.550;2024-01-15T00:52:54;28.00;19.00;9.67
72854;PMS7003;60991;51.278;22.550;2024-01-15T00:54:24;22.33;22.33;11.00
72854;PMS7003;60991;51.278;22.550;2024-01-15T00:55:54;31.33;23.00;16.33
72854;PMS7003;60991;51.278;22.550;2024-01-15T00:57:25;28.00;20.00;11.00
72854;PMS7003;60991;51.278;22.550;2024-01-15T00:58:55;32.67;23.00;16.00
72854;PMS7003;60991;51.278;22.550;2024-01-15T01:00:25;34.33;23.67;16.00
72854;PMS7003;60991;51.278;22.550;2024-01-15T01:01:55;32.67;24.67;14.33
72854;PMS7003;60991;51.278;22.550;2024-01-15T01:03:25;30.00;25.33;16.00
72854;PMS7003;60991;51.278;22.550;2024-01-15T01:04:56;36.00;24.00;16.33
72854;PMS7003;60991;51.278;22.550;2024-01-15T01:06:26;30.67;26.00;16.33
72854;PMS7003;60991;51.278;22.550;2024-01-15T01:07:56;17.33;13.67;5.33
72854;PMS7003;60991;51.278;22.550;2024-01-15T01:09:26;26.67;22.00;17.00
72854;PMS7003;60991;51.278;22.550;2024-01-15T01:10:56;25.67;22.00;16.00
72854;PMS7003;60991;51.278;22.550;2024-01-15T01:12:27;23.67;20.33;16.00
72854;PMS7003;60991;51.278;22.550;2024-01-15T01:13:57;33.33;25.00;14.67
72854;PMS7003;60991;51.278;22.550;2024-01-15T01:15:27;37.25;30.75;15.50
72854;PMS7003;60991;51.278;22.550;2024-01-15T01:16:57;19.75;17.50;11.50
72854;PMS7003;60991;51.278;22.550;2024-01-15T01:18:28;21.33;17.67;14.33
72854;PMS7003;60991;51.278;22.550;2024-01-15T01:19:58;23.00;18.33;14.33
72854;PMS7003;60991;51.278;22.550;2024-01-15T01:21:28;28.67;25.67;13.00
72854;PMS7003;60991;51.278;22.550;2024-01-15T01:22:58;30.00;26.00;16.00
72854;PMS7003;60991;51.278;22.550;2024-01-15T01:24:28;26.00;23.33;16.00
72854;PMS7003;60991;51.278;22.550;2024-01-15T01:25:59;23.33;23.00;13.67
72854;PMS7003;60991;51.278;22.550;2024-01-15T01:27:29;33.33;20.67;13.33
72854;PMS7003;60991;51.278;22.550;2024-01-15T01:28:59;25.00;20.00;13.67
72854;PMS7003;60991;51.278;22.550;2024-01-15T01:30:29;20.00;19.00;13.33
72854;PMS7003;60991;51.278;22.550;2024-01-15T01:31:59;30.00;21.67;13.67
72854;PMS7003;60991;51.278;22.550;2024-01-15T01:33:30;26.00;21.33;13.67
72854;PMS7003;60991;51.278;22.550;2024-01-15T01:35:00;31.00;24.00;17.00
72854;PMS7003;60991;51.278;22.550;2024-01-15T01:36:31;30.75;22.25;16.25
72854;PMS7003;60991;51.278;22.550;2024-01-15T01:38:01;22.75;21.50;15.00
72854;PMS7003;60991;51.278;22.550;2024-01-15T01:39:31;19.67;19.67;13.67
72854;PMS7003;60991;51.278;22.550;2024-01-15T01:41:02;24.33;22.00;14.33
72854;PMS7003;60991;51.278;22.550;2024-01-15T01:42:32;23.00;18.00;10.25
72854;PMS7003;60991;51.278;22.550;2024-01-15T01:44:02;27.00;25.00;15.33
72854;PMS7003;60991;51.278;22.550;2024-01-15T01:45:32;25.50;22.25;13.75
72854;PMS7003;60991;51.278;22.550;2024-01-15T01:47:03;27.00;22.00;13.33
72854;PMS7003;60991;51.278;22.550;2024-01-15T01:48:34;32.75;23.75;14.00
72854;PMS7003;60991;51.278;22.550;2024-01-15T01:50:04;36.00;24.75;16.25
72854;PMS7003;60991;51.278;22.550;2024-01-15T01:51:35;24.25;22.25;16.00
72854;PMS7003;60991;51.278;22.550;2024-01-15T01:53:05;24.50;23.00;14.75
72854;PMS7003;60991;51.278;22.550;2024-01-15T01:54:36;26.75;22.75;16.75
72854;PMS7003;60991;51.278;22.550;2024-01-15T01:56:08;23.75;18.00;13.50
72854;PMS7003;60991;51.278;22.550;2024-01-15T01:57:39;29.75;28.25;15.75
72854;PMS7003;60991;51.278;22.550;2024-01-15T01:59:10;22.50;21.00;13.75
72854;PMS7003;60991;51.278;22.550;2024-01-15T02:00:41;22.50;15.50;12.75
72854;PMS7003;60991;51.278;22.550;2024-01-15T02:02:12;30.75;21.00;13.50
72854;PMS7003;60991;51.278;22.550;2024-01-15T02:03:42;20.67;19.00;13.00
72854;PMS7003;60991;51.278;22.550;2024-01-15T02:05:13;31.25;23.75;15.00
72854;PMS7003;60991;51.278;22.550;2024-01-15T02:06:48;18.75;18.25;11.25
72854;PMS7003;60991;51.278;22.550;2024-01-15T02:08:18;26.75;17.75;10.75
72854;PMS7003;60991;51.278;22.550;2024-01-15T02:09:49;30.00;22.00;16.50
72854;PMS7003;60991;51.278;22.550;2024-01-15T02:11:19;28.00;25.75;16.00
72854;PMS7003;60991;51.278;22.550;2024-01-15T02:12:50;28.33;21.67;12.00
72854;PMS7003;60991;51.278;22.550;2024-01-15T02:14:20;25.00;20.00;11.67
72854;PMS7003;60991;51.278;22.550;2024-01-15T02:15:50;29.50;25.00;13.75
72854;PMS7003;60991;51.278;22.550;2024-01-15T02:17:20;29.33;22.00;15.67
72854;PMS7003;60991;51.278;22.550;2024-01-15T02:18:51;29.00;17.67;13.00
72854;PMS7003;60991;51.278;22.550;2024-01-15T02:20:21;21.00;19.33;12.67
72854;PMS7003;60991;51.278;22.550;2024-01-15T02:21:51;18.67;15.33;4.67
72854;PMS7003;60991;51.278;22.550;2024-01-15T02:23:21;16.67;16.67;12.00
72854;PMS7003;60991;51.278;22.550;2024-01-15T02:24:51;29.00;21.00;13.00
72854;PMS7003;60991;51.278;22.550;2024-01-15T02:26:22;29.00;22.67;13.00
72854;PMS7003;60991;51.278;22.550;2024-01-15T02:27:52;25.00;21.50;13.50
72854;PMS7003;60991;51.278;22.550;2024-01-15T02:29:23;24.00;21.25;14.00
72854;PMS7003;60991;51.278;22.550;2024-01-15T02:30:53;15.75;15.75;8.25
72854;PMS7003;60991;51.278;22.550;2024-01-15T02:32:23;31.33;19.00;13.33
72854;PMS7003;60991;51.278;22.550;2024-01-15T02:33:54;23.00;17.00;14.33
72854;PMS7003;60991;51.278;22.550;2024-01-15T02:35:24;28.00;25.75;13.50
72854;PMS7003;60991;51.278;22.550;2024-01-15T02:36:54;27.00;18.67;10.67
72854;PMS7003;60991;51.278;22.550;2024-01-15T02:38:24;23.00;19.00;13.33
72854;PMS7003;60991;51.278;22.550;2024-01-15T02:39:54;23.00;19.00;13.33
72854;PMS7003;60991;51.278;22.550;2024-01-15T02:41:25;24.00;12.67;7.67
72854;PMS7003;60991;51.278;22.550;2024-01-15T02:42:55;24.33;18.67;9.33
72854;PMS7003;60991;51.278;22.550;2024-01-15T02:44:25;23.33;20.33;14.33
72854;PMS7003;60991;51.278;22.550;2024-01-15T02:45:55;16.67;16.67;11.33
72854;PMS7003;60991;51.278;22.550;2024-01-15T02:47:25;23.00;19.00;11.33
72854;PMS7003;60991;51.278;22.550;2024-01-15T02:48:56;22.33;22.33;15.00
72854;PMS7003;60991;51.278;22.550;2024-01-15T02:50:26;23.50;20.50;12.50
72854;PMS7003;60991;51.278;22.550;2024-01-15T02:51:56;21.00;17.67;10.67
72854;PMS7003;60991;51.278;22.550;2024-01-15T02:53:26;28.00;22.00;14.33
72854;PMS7003;60991;51.278;22.550;2024-01-15T02:54:57;17.67;15.67;10.00
72854;PMS7003;60991;51.278;22.550;2024-01-15T02:56:27;17.33;17.00;13.00
72854;PMS7003;60991;51.278;22.550;2024-01-15T02:57:57;21.33;18.00;13.33
72854;PMS7003;60991;51.278;22.550;2024-01-15T02:59:27;22.33;18.33;13.00
72854;PMS7003;60991;51.278;22.550;2024-01-15T03:00:57;15.67;15.67;10.67
72854;PMS7003;60991;51.278;22.550;2024-01-15T03:02:28;13.50;12.50;11.25
72854;PMS7003;60991;51.278;22.550;2024-01-15T03:03:58;20.33;13.00;10.33
72854;PMS7003;60991;51.278;22.550;2024-01-15T03:05:28;26.67;16.33;11.33
72854;PMS7003;60991;51.278;22.550;2024-01-15T03:06:58;22.00;18.33;14.67
72854;PMS7003;60991;51.278;22.550;2024-01-15T03:08:28;15.67;13.67;5.33
72854;PMS7003;60991;51.278;22.550;2024-01-15T03:09:59;18.67;17.00;11.33
72854;PMS7003;60991;51.278;22.550;2024-01-15T03:11:29;19.00;15.50;10.50
72854;PMS7003;60991;51.278;22.550;2024-01-15T03:12:59;16.33;16.33;11.33
72854;PMS7003;60991;51.278;22.550;2024-01-15T03:14:30;22.00;18.67;13.33
72854;PMS7003;60991;51.278;22.550;2024-01-15T03:16:00;26.00;18.33;11.33
72854;PMS7003;60991;51.278;22.550;2024-01-15T03:17:30;16.33;16.33;10.33
72854;PMS7003;60991;51.278;22.550;2024-01-15T03:19:00;21.67;17.67;13.00
72854;PMS7003;60991;51.278;22.550;2024-01-15T03:20:31;25.00;20.25;13.00
72854;PMS7003;60991;51.278;22.550;2024-01-15T03:22:01;17.33;16.67;13.00
72854;PMS7003;60991;51.278;22.550;2024-01-15T03:23:31;17.75;16.25;11.75
72854;PMS7003;60991;51.278;22.550;2024-01-15T03:25:01;20.33;16.67;13.00
72854;PMS7003;60991;51.278;22.550;2024-01-15T03:26:33;19.25;14.75;10.25
72854;PMS7003;60991;51.278;22.550;2024-01-15T03:28:03;17.33;15.67;11.33
72854;PMS7003;60991;51.278;22.550;2024-01-15T03:29:33;16.25;13.00;10.75
72854;PMS7003;60991;51.278;22.550;2024-01-15T03:31:03;17.67;13.00;10.00
72854;PMS7003;60991;51.278;22.550;2024-01-15T03:32:34;17.33;15.33;10.00
72854;PMS7003;60991;51.278;22.550;2024-01-15T03:34:04;20.33;14.67;11.33
72854;PMS7003;60991;51.278;22.550;2024-01-15T03:35:34;22.33;20.33;13.00
72854;PMS7003;60991;51.278;22.550;2024-01-15T03:37:04;19.00;16.00;13.00
72854;PMS7003;60991;51.278;22.550;2024-01-15T03:38:34;16.33;13.33;10.00
72854;PMS7003;60991;51.278;22.550;2024-01-15T03:40:11;25.50;17.25;10.50
72854;PMS7003;60991;51.278;22.550;2024-01-15T03:41:41;25.00;18.75;11.50
72854;PMS7003;60991;51.278;22.550;2024-01-15T03:43:11;24.67;16.00;9.67
72854;PMS7003;60991;51.278;22.550;2024-01-15T03:44:42;20.50;15.50;10.50
72854;PMS7003;60991;51.278;22.550;2024-01-15T03:46:12;22.67;13.00;10.00
72854;PMS7003;60991;51.278;22.550;2024-01-15T03:47:42;13.00;8.67;7.00
72854;PMS7003;60991;51.278;22.550;2024-01-15T03:49:12;16.33;15.00;10.67
72854;PMS7003;60991;51.278;22.550;2024-01-15T03:50:43;23.67;17.00;12.33
72854;PMS7003;60991;51.278;22.550;2024-01-15T03:52:13;16.33;13.00;10.00
72854;PMS7003;60991;51.278;22.550;2024-01-15T03:53:43;16.33;15.67;10.67
72854;PMS7003;60991;51.278;22.550;2024-01-15T03:55:13;23.75;15.50;10.50
72854;PMS7003;60991;51.278;22.550;2024-01-15T03:56:44;20.00;18.00;11.50
72854;PMS7003;60991;51.278;22.550;2024-01-15T03:58:14;17.00;14.33;11.33
72854;PMS7003;60991;51.278;22.550;2024-01-15T03:59:44;20.33;17.33;10.33
72854;PMS7003;60991;51.278;22.550;2024-01-15T04:01:14;14.33;12.00;7.00
72854;PMS7003;60991;51.278;22.550;2024-01-15T04:02:44;16.67;10.67;8.33
72854;PMS7003;60991;51.278;22.550;2024-01-15T04:04:14;10.00;8.67;7.00
72854;PMS7003;60991;51.278;22.550;2024-01-15T04:05:45;12.33;9.33;7.33
72854;PMS7003;60991;51.278;22.550;2024-01-15T04:07:15;14.33;12.67;7.67
72854;PMS7003;60991;51.278;22.550;2024-01-15T04:08:45;13.00;10.67;8.33
72854;PMS7003;60991;51.278;22.550;2024-01-15T04:10:15;19.00;12.00;10.00
72854;PMS7003;60991;51.278;22.550;2024-01-15T04:11:45;14.67;10.67;7.67
72854;PMS7003;60991;51.278;22.550;2024-01-15T04:13:16;14.33;13.33;8.00
72854;PMS7003;60991;51.278;22.550;2024-01-15T04:14:46;15.33;11.33;8.33
72854;PMS7003;60991;51.278;22.550;2024-01-15T04:16:16;23.67;11.67;10.33
72854;PMS7003;60991;51.278;22.550;2024-01-15T04:17:46;22.33;18.33;11.33
72854;PMS7003;60991;51.278;22.550;2024-01-15T04:19:16;11.33;10.33;7.00
72854;PMS7003;60991;51.278;22.550;2024-01-15T04:20:47;17.33;10.00;8.33
72854;PMS7003;60991;51.278;22.550;2024-01-15T04:22:17;13.33;12.33;8.33
72854;PMS7003;60991;51.278;22.550;2024-01-15T04:23:47;13.67;12.67;8.33
72854;PMS7003;60991;51.278;22.550;2024-01-15T04:25:17;15.33;13.00;8.33
72854;PMS7003;60991;51.278;22.550;2024-01-15T04:26:47;16.00;15.00;8.67
72854;PMS7003;60991;51.278;22.550;2024-01-15T04:28:18;19.67;10.33;8.67
72854;PMS7003;60991;51.278;22.550;2024-01-15T04:29:48;9.33;7.33;6.00
72854;PMS7003;60991;51.278;22.550;2024-01-15T04:31:22;14.67;11.67;8.67
72854;PMS7003;60991;51.278;22.550;2024-01-15T04:32:52;10.00;7.00;4.00
72854;PMS7003;60991;51.278;22.550;2024-01-15T04:34:23;13.67;10.67;7.33
72854;PMS7003;60991;51.278;22.550;2024-01-15T04:35:53;10.00;8.33;7.00
72854;PMS7003;60991;51.278;22.550;2024-01-15T04:37:23;14.33;13.00;8.33
72854;PMS7003;60991;51.278;22.550;2024-01-15T04:38:53;11.33;9.33;7.67
72854;PMS7003;60991;51.278;22.550;2024-01-15T04:40:23;22.00;14.33;7.00
72854;PMS7003;60991;51.278;22.550;2024-01-15T04:41:54;10.67;10.33;6.67
72854;PMS7003;60991;51.278;22.550;2024-01-15T04:43:24;8.00;7.00;6.67
72854;PMS7003;60991;51.278;22.550;2024-01-15T04:44:54;12.33;9.00;6.33
72854;PMS7003;60991;51.278;22.550;2024-01-15T04:46:24;9.33;9.33;7.00
72854;PMS7003;60991;51.278;22.550;2024-01-15T04:47:55;10.00;10.00;8.00
72854;PMS7003;60991;51.278;22.550;2024-01-15T04:49:25;12.75;9.75;7.00
72854;PMS7003;60991;51.278;22.550;2024-01-15T04:50:55;10.00;10.00;7.00
72854;PMS7003;60991;51.278;22.550;2024-01-15T04:52:25;8.00;8.00;5.67
72854;PMS7003;60991;51.278;22.550;2024-01-15T04:53:55;7.33;6.33;5.33
72854;PMS7003;60991;51.278;22.550;2024-01-15T04:55:26;12.33;10.00;7.00
72854;PMS7003;60991;51.278;22.550;2024-01-15T04:56:56;15.67;10.67;7.67
72854;PMS7003;60991;51.278;22.550;2024-01-15T04:58:26;10.33;7.33;7.00
72854;PMS7003;60991;51.278;22.550;2024-01-15T04:59:56;6.33;6.33;4.33
72854;PMS7003;60991;51.278;22.550;2024-01-15T05:01:30;8.33;7.33;5.67
72854;PMS7003;60991;51.278;22.550;2024-01-15T05:03:01;12.00;11.75;7.50
72854;PMS7003;60991;51.278;22.550;2024-01-15T05:04:31;12.67;10.00;7.67
72854;PMS7003;60991;51.278;22.550;2024-01-15T05:06:01;12.67;11.00;5.33
72854;PMS7003;60991;51.278;22.550;2024-01-15T05:07:32;11.50;8.75;7.00
72854;PMS7003;60991;51.278;22.550;2024-01-15T05:09:02;8.33;8.33;5.67
72854;PMS7003;60991;51.278;22.550;2024-01-15T05:10:32;13.00;10.00;7.75
72854;PMS7003;60991;51.278;22.550;2024-01-15T05:12:02;11.00;11.00;6.33
72854;PMS7003;60991;51.278;22.550;2024-01-15T05:13:33;16.75;13.00;9.50
72854;PMS7003;60991;51.278;22.550;2024-01-15T05:15:03;13.67;10.00;7.00
72854;PMS7003;60991;51.278;22.550;2024-01-15T05:16:34;13.50;10.00;6.50
72854;PMS7003;60991;51.278;22.550;2024-01-15T05:18:04;9.67;7.00;5.67
72854;PMS7003;60991;51.278;22.550;2024-01-15T05:19:35;13.50;10.00;7.00
72854;PMS7003;60991;51.278;22.550;2024-01-15T05:21:05;12.00;9.00;7.00
72854;PMS7003;60991;51.278;22.550;2024-01-15T05:22:35;19.75;12.50;8.00
72854;PMS7003;60991;51.278;22.550;2024-01-15T05:24:05;12.00;12.00;8.33
72854;PMS7003;60991;51.278;22.550;2024-01-15T05:25:35;20.25;9.00;7.00
72854;PMS7003;60991;51.278;22.550;2024-01-15T05:27:06;10.67;8.33;6.33
72854;PMS7003;60991;51.278;22.550;2024-01-15T05:28:36;13.67;11.33;9.00
72854;PMS7003;60991;51.278;22.550;2024-01-15T05:30:06;13.67;11.33;7.00
72854;PMS7003;60991;51.278;22.550;2024-01-15T05:31:37;12.25;12.25;9.00
72854;PMS7003;60991;51.278;22.550;2024-01-15T05:33:07;10.00;10.00;7.50
72854;PMS7003;60991;51.278;22.550;2024-01-15T05:34:37;10.67;7.33;6.33
72854;PMS7003;60991;51.278;22.550;2024-01-15T05:36:07;7.00;7.00;4.00
72854;PMS7003;60991;51.278;22.550;2024-01-15T05:37:39;15.25;10.00;7.00
72854;PMS7003;60991;51.278;22.550;2024-01-15T05:39:13;14.75;9.25;8.75
72854;PMS7003;60991;51.278;22.550;2024-01-15T05:40:43;10.00;7.00;6.00
72854;PMS7003;60991;51.278;22.550;2024-01-15T05:42:13;15.33;9.33;6.67
72854;PMS7003;60991;51.278;22.550;2024-01-15T05:43:43;9.00;6.33;4.00
72854;PMS7003;60991;51.278;22.550;2024-01-15T05:45:14;12.00;10.00;7.00
72854;PMS7003;60991;51.278;22.550;2024-01-15T05:46:44;16.00;9.67;7.67
72854;PMS7003;60991;51.278;22.550;2024-01-15T05:48:14;13.00;11.33;7.33
72854;PMS7003;60991;51.278;22.550;2024-01-15T05:49:44;13.33;11.33;7.33
72854;PMS7003;60991;51.278;22.550;2024-01-15T05:51:14;7.33;7.00;7.00
72854;PMS7003;60991;51.278;22.550;2024-01-15T05:52:45;7.67;7.33;5.33
72854;PMS7003;60991;51.278;22.550;2024-01-15T05:54:15;8.33;8.33;5.33
72854;PMS7003;60991;51.278;22.550;2024-01-15T05:55:45;10.00;8.33;7.00
72854;PMS7003;60991;51.278;22.550;2024-01-15T05:57:15;5.00;4.00;4.00
72854;PMS7003;60991;51.278;22.550;2024-01-15T05:58:46;7.25;7.25;6.50
72854;PMS7003;60991;51.278;22.550;2024-01-15T06:00:16;13.33;9.33;7.00
72854;PMS7003;60991;51.278;22.550;2024-01-15T06:01:46;10.50;5.50;4.00
72854;PMS7003;60991;51.278;22.550;2024-01-15T06:03:16;10.00;9.00;7.00
72854;PMS7003;60991;51.278;22.550;2024-01-15T06:04:47;9.67;7.00;4.67
72854;PMS7003;60991;51.278;22.550;2024-01-15T06:06:17;16.67;7.67;5.33
72854;PMS7003;60991;51.278;22.550;2024-01-15T06:07:47;13.33;6.33;4.33
72854;PMS7003;60991;51.278;22.550;2024-01-15T06:09:17;11.00;8.33;7.00
72854;PMS7003;60991;51.278;22.550;2024-01-15T06:10:47;5.33;5.33;4.00
72854;PMS7003;60991;51.278;22.550;2024-01-15T06:12:18;9.33;7.00;5.33
72854;PMS7003;60991;51.278;22.550;2024-01-15T06:13:48;7.67;7.67;5.67
72854;PMS7003;60991;51.278;22.550;2024-01-15T06:15:18;4.33;4.00;2.33
72854;PMS7003;60991;51.278;22.550;2024-01-15T06:16:48;3.67;3.67;3.00
72854;PMS7003;60991;51.278;22.550;2024-01-15T06:18:18;8.00;7.00;5.00
72854;PMS7003;60991;51.278;22.550;2024-01-15T06:19:48;9.67;8.00;5.33
72854;PMS7003;60991;51.278;22.550;2024-01-15T06:21:19;7.00;7.00;5.33
72854;PMS7003;60991;51.278;22.550;2024-01-15T06:22:49;8.75;8.50;5.75
72854;PMS7003;60991;51.278;22.550;2024-01-15T06:24:20;11.33;6.67;4.00
72854;PMS7003;60991;51.278;22.550;2024-01-15T06:25:50;10.00;7.33;5.33
72854;PMS7003;60991;51.278;22.550;2024-01-15T06:27:20;10.00;7.00;5.33
72854;PMS7003;60991;51.278;22.550;2024-01-15T06:28:50;13.00;8.25;4.50
72854;PMS7003;60991;51.278;22.550;2024-01-15T06:30:20;12.75;6.00;4.75
72854;PMS7003;60991;51.278;22.550;2024-01-15T06:31:51;13.67;9.67;5.67
72854;PMS7003;60991;51.278;22.550;2024-01-15T06:33:21;5.00;5.00;4.00
72854;PMS7003;60991;51.278;22.550;2024-01-15T06:34:51;8.33;7.00;6.33
72854;PMS7003;60991;51.278;22.550;2024-01-15T06:36:21;10.00;7.00;5.33
72854;PMS7003;60991;51.278;22.550;2024-01-15T06:37:51;10.00;10.00;7.67
72854;PMS7003;60991;51.278;22.550;2024-01-15T06:39:22;11.67;8.33;5.33
72854;PMS7003;60991;51.278;22.550;2024-01-15T06:40:52;8.67;5.33;4.00
72854;PMS7003;60991;51.278;22.550;2024-01-15T06:42:22;7.00;7.00;4.00
72854;PMS7003;60991;51.278;22.550;2024-01-15T06:43:52;5.00;4.00;4.00
72854;PMS7003;60991;51.278;22.550;2024-01-15T06:45:22;2.67;0.00;0.00
72854;PMS7003;60991;51.278;22.550;2024-01-15T06:46:52;14.00;8.33;5.33
72854;PMS7003;60991;51.278;22.550;2024-01-15T06:48:23;5.33;5.33;4.00
72854;PMS7003;60991;51.278;22.550;2024-01-15T06:49:53;7.67;5.33;5.00
72854;PMS7003;60991;51.278;22.550;2024-01-15T06:51:23;11.67;8.33;5.33
72854;PMS7003;60991;51.278;22.550;2024-01-15T06:52:53;10.33;10.33;5.33
72854;PMS7003;60991;51.278;22.550;2024-01-15T06:54:23;6.33;5.00;3.00
72854;PMS7003;60991;51.278;22.550;2024-01-15T06:55:54;6.33;6.33;4.33
72854;PMS7003;60991;51.278;22.550;2024-01-15T06:57:24;7.67;5.33;3.67
72854;PMS7003;60991;51.278;22.550;2024-01-15T06:58:54;10.00;7.00;4.00
72854;PMS7003;60991;51.278;22.550;2024-01-15T07:00:25;5.00;5.00;4.67
72854;PMS7003;60991;51.278;22.550;2024-01-15T07:01:55;6.50;6.50;5.50
72854;PMS7003;60991;51.278;22.550;2024-01-15T07:03:25;7.33;3.33;2.67
72854;PMS7003;60991;51.278;22.550;2024-01-15T07:04:55;8.33;5.67;4.00
72854;PMS7003;60991;51.278;22.550;2024-01-15T07:06:26;7.67;5.33;2.67
72854;PMS7003;60991;51.278;22.550;2024-01-15T07:07:56;4.00;4.00;3.67
72854;PMS7003;60991;51.278;22.550;2024-01-15T07:09:26;4.67;4.67;3.67
72854;PMS7003;60991;51.278;22.550;2024-01-15T07:10:56;4.00;4.00;3.33
72854;PMS7003;60991;51.278;22.550;2024-01-15T07:12:26;4.33;2.33;2.33
72854;PMS7003;60991;51.278;22.550;2024-01-15T07:13:57;11.00;8.00;5.67
72854;PMS7003;60991;51.278;22.550;2024-01-15T07:15:27;9.33;7.00;4.00
72854;PMS7003;60991;51.278;22.550;2024-01-15T07:16:57;5.00;5.00;4.00
72854;PMS7003;60991;51.278;22.550;2024-01-15T07:18:27;5.00;5.00;4.00
72854;PMS7003;60991;51.278;22.550;2024-01-15T07:19:57;8.00;6.67;4.33
72854;PMS7003;60991;51.278;22.550;2024-01-15T07:21:28;4.33;4.00;3.67
72854;PMS7003;60991;51.278;22.550;2024-01-15T07:22:58;7.00;6.00;4.67
72854;PMS7003;60991;51.278;22.550;2024-01-15T07:24:28;13.00;5.00;3.33
72854;PMS7003;60991;51.278;22.550;2024-01-15T07:25:58;10.67;4.33;4.00
72854;PMS7003;60991;51.278;22.550;2024-01-15T07:27:28;4.00;4.00;2.25
72854;PMS7003;60991;51.278;22.550;2024-01-15T07:28:59;4.00;3.00;2.33
72854;PMS7003;60991;51.278;22.550;2024-01-15T07:30:29;8.67;4.67;2.33
72854;PMS7003;60991;51.278;22.550;2024-01-15T07:31:59;4.00;4.00;1.75
72854;PMS7003;60991;51.278;22.550;2024-01-15T07:33:29;5.33;5.33;3.33
72854;PMS7003;60991;51.278;22.550;2024-01-15T07:34:59;7.00;4.00;2.33
72854;PMS7003;60991;51.278;22.550;2024-01-15T07:36:30;8.33;4.67;2.33
72854;PMS7003;60991;51.278;22.550;2024-01-15T07:38:00;7.00;5.33;4.00
72854;PMS7003;60991;51.278;22.550;2024-01-15T07:39:30;3.33;3.33;1.67
72854;PMS7003;60991;51.278;22.550;2024-01-15T07:41:00;5.33;5.33;4.00
72854;PMS7003;60991;51.278;22.550;2024-01-15T07:42:30;10.00;4.33;4.00
72854;PMS7003;60991;51.278;22.550;2024-01-15T07:44:01;4.33;4.33;4.00
72854;PMS7003;60991;51.278;22.550;2024-01-15T07:45:31;4.00;4.00;4.00
72854;PMS7003;60991;51.278;22.550;2024-01-15T07:47:02;4.33;4.00;2.67
72854;PMS7003;60991;51.278;22.550;2024-01-15T07:48:32;7.50;2.25;0.00
72854;PMS7003;60991;51.278;22.550;2024-01-15T07:50:02;6.00;4.00;3.67
72854;PMS7003;60991;51.278;22.550;2024-01-15T07:51:33;6.50;6.50;5.25
72854;PMS7003;60991;51.278;22.550;2024-01-15T07:53:03;7.00;5.00;2.67
72854;PMS7003;60991;51.278;22.550;2024-01-15T07:54:33;4.00;2.25;2.25
72854;PMS7003;60991;51.278;22.550;2024-01-15T07:56:04;6.33;4.00;2.33
72854;PMS7003;60991;51.278;22.550;2024-01-15T07:57:34;6.00;6.00;4.50
72854;PMS7003;60991;51.278;22.550;2024-01-15T07:59:04;7.00;4.00;2.67
72854;PMS7003;60991;51.278;22.550;2024-01-15T08:00:34;12.67;6.67;4.00
72854;PMS7003;60991;51.278;22.550;2024-01-15T08:02:04;5.33;4.33;3.33
72854;PMS7003;60991;51.278;22.550;2024-01-15T08:03:35;10.33;7.33;4.00
72854;PMS7003;60991;51.278;22.550;2024-01-15T08:05:05;6.67;2.33;2.33
72854;PMS7003;60991;51.278;22.550;2024-01-15T08:06:35;5.25;5.25;4.00
72854;PMS7003;60991;51.278;22.550;2024-01-15T08:08:05;7.67;7.67;4.67
72854;PMS7003;60991;51.278;22.550;2024-01-15T08:09:35;7.33;6.00;4.33
72854;PMS7003;60991;51.278;22.550;2024-01-15T08:11:06;7.00;4.33;4.00
72854;PMS7003;60991;51.278;22.550;2024-01-15T08:12:36;5.25;3.25;2.75
72854;PMS7003;60991;51.278;22.550;2024-01-15T08:14:06;9.00;9.00;4.67
72854;PMS7003;60991;51.278;22.550;2024-01-15T08:15:36;4.00;4.00;3.67
72854;PMS7003;60991;51.278;22.550;2024-01-15T08:17:07;7.67;7.00;4.67
72854;PMS7003;60991;51.278;22.550;2024-01-15T08:18:37;10.00;9.33;7.00
72854;PMS7003;60991;51.278;22.550;2024-01-15T08:20:07;7.00;7.00;4.67
72854;PMS7003;60991;51.278;22.550;2024-01-15T08:21:37;9.25;7.50;6.75
72854;PMS7003;60991;51.278;22.550;2024-01-15T08:23:08;4.75;0.75;0.75
72854;PMS7003;60991;51.278;22.550;2024-01-15T08:24:38;9.67;6.33;5.33
72854;PMS7003;60991;51.278;22.550;2024-01-15T08:26:08;8.00;7.67;6.33
72854;PMS7003;60991;51.278;22.550;2024-01-15T08:27:38;9.00;8.33;6.00